Time;durP1;ratioP1;P1;durP2;ratioP2;P2;SDS_P1;SDS_P2;PMS_P1;PMS_P2;Temp;Humidity;BMP_temperature;BMP_pressure;BME280_temperature;BME280_humidity;BME280_pressure;Samples;Min_cycle;Max_cycle;Signal;HPM_P1;HPM_P2
2022/09/28 00:01:24;;;;;;;3.60;0.90;;;;;;;6.95;100.00;95658.03;5043960;28;20045;-66
2022/09/28 00:03:53;;;;;;;1.70;0.75;;;;;;;6.88;100.00;95651.06;5042026;28;20068;-67
2022/09/28 00:06:25;;;;;;;1.92;0.80;;;;;;;6.95;100.00;95650.78;5069824;28;20135;-66
2022/09/28 00:08:53;;;;;;;3.65;1.02;;;;;;;6.97;100.00;95645.16;5068863;28;20044;-66
2022/09/28 00:11:21;;;;;;;3.38;1.00;;;;;;;6.95;100.00;95641.91;5070002;28;20131;-66
2022/09/28 00:13:51;;;;;;;4.00;0.85;;;;;;;7.01;100.00;95624.69;5074338;28;20040;-66
2022/09/28 00:16:20;;;;;;;1.75;0.80;;;;;;;6.98;100.00;95627.91;5068585;28;20040;-66
2022/09/28 00:18:49;;;;;;;4.82;1.40;;;;;;;6.98;100.00;95615.28;5069234;28;20139;-66
2022/09/28 00:21:18;;;;;;;1.67;0.80;;;;;;;6.94;100.00;95619.59;5068370;28;20128;-66
2022/09/28 00:26:32;;;;;;;2.45;0.90;;;;;;;7.00;100.00;95613.09;5049580;28;20480;-66
2022/09/28 00:29:00;;;;;;;3.50;1.08;;;;;;;7.12;100.00;95609.31;5064519;28;20135;-66
2022/09/28 00:31:31;;;;;;;3.10;1.13;;;;;;;7.05;100.00;95604.22;5067885;28;20135;-66
2022/09/28 00:34:00;;;;;;;2.95;0.93;;;;;;;7.12;100.00;95593.97;5068529;28;20067;-65
2022/09/28 00:36:28;;;;;;;3.05;1.00;;;;;;;7.17;100.00;95587.75;5069962;28;20128;-66
2022/09/28 00:38:56;;;;;;;2.75;0.90;;;;;;;7.16;100.00;95583.47;5068673;28;20045;-66
2022/09/28 00:41:25;;;;;;;2.03;1.05;;;;;;;7.11;100.00;95580.81;5068957;28;20054;-66
2022/09/28 00:43:53;;;;;;;2.35;1.13;;;;;;;7.15;100.00;95579.19;5088455;28;20118;-66
2022/09/28 00:46:31;;;;;;;2.75;0.85;;;;;;;7.26;100.00;95572.66;5067550;28;20087;-66
2022/09/28 00:49:03;;;;;;;2.88;0.93;;;;;;;7.26;100.00;95564.59;5068996;28;20047;-66
2022/09/28 00:51:30;;;;;;;2.05;0.88;;;;;;;7.21;100.00;95558.41;5067710;28;20083;-66
2022/09/28 00:54:01;;;;;;;1.98;1.00;;;;;;;7.15;100.00;95546.88;5101037;27;20048;-66
2022/09/28 00:56:30;;;;;;;2.33;0.85;;;;;;;7.12;100.00;95552.81;5067787;28;20511;-66
2022/09/28 00:58:58;;;;;;;2.30;1.00;;;;;;;7.08;100.00;95536.38;5066800;28;20238;-66
2022/09/28 01:01:26;;;;;;;2.55;1.00;;;;;;;7.06;100.00;95545.81;5068318;28;20036;-66
2022/09/28 01:03:53;;;;;;;2.53;1.08;;;;;;;7.10;100.00;95531.53;5068396;28;20128;-66
2022/09/28 01:06:22;;;;;;;1.88;0.73;;;;;;;7.13;100.00;95525.63;5066857;28;20044;-66
2022/09/28 01:08:51;;;;;;;1.88;0.90;;;;;;;7.13;100.00;95527.50;5067924;28;20045;-66
2022/09/28 01:11:18;;;;;;;2.95;0.98;;;;;;;7.19;100.00;95528.28;5066904;28;20040;-66
2022/09/28 01:13:47;;;;;;;2.70;0.75;;;;;;;7.25;100.00;95511.81;5073066;28;20526;-67
2022/09/28 01:16:19;;;;;;;1.70;0.93;;;;;;;7.27;100.00;95511.56;5067043;28;20045;-66
2022/09/28 01:19:27;;;;;;;3.20;1.10;;;;;;;7.27;100.00;95508.88;5066909;28;20044;-66
2022/09/28 01:22:21;;;;;;;3.35;1.38;;;;;;;7.28;100.00;95499.69;5065857;28;20102;-66
2022/09/28 01:25:08;;;;;;;2.72;1.10;;;;;;;7.28;100.00;95478.16;5064682;28;20123;-66
2022/09/28 01:27:43;;;;;;;3.40;1.38;;;;;;;7.25;100.00;95478.72;5060730;28;20087;-66
2022/09/28 01:30:15;;;;;;;2.95;1.10;;;;;;;7.27;100.00;95473.88;5066392;28;20048;-66
2022/09/28 01:32:47;;;;;;;;;;;;;;;7.27;100.00;95465.78;5067117;28;20132;-66
2022/09/28 01:35:30;;;;;;;4.07;1.10;;;;;;;7.31;100.00;95469.53;5064087;28;19932;-66
2022/09/28 01:38:06;;;;;;;2.80;1.20;;;;;;;7.30;100.00;95459.84;5066874;28;20044;-66
2022/09/28 01:40:34;;;;;;;2.42;1.23;;;;;;;7.38;100.00;95461.94;5065743;28;20131;-66
2022/09/28 01:43:15;;;;;;;2.88;0.90;;;;;;;7.42;100.00;95454.91;5072792;28;20040;-66
2022/09/28 01:45:46;;;;;;;3.95;1.20;;;;;;;7.51;100.00;95444.38;5061849;28;20139;-66
2022/09/28 01:48:23;;;;;;;1.02;0.63;;;;;;;7.63;100.00;95446.69;5065874;28;20041;-66
2022/09/28 01:50:54;;;;;;;2.65;0.60;;;;;;;7.65;100.00;95435.66;5066804;28;20067;-66
2022/09/28 01:53:27;;;;;;;1.30;0.70;;;;;;;7.66;100.00;95423.78;5065685;28;20037;-66
2022/09/28 01:56:00;;;;;;;3.85;1.10;;;;;;;7.61;100.00;95423.81;5065642;28;20066;-66
2022/09/28 01:58:33;;;;;;;2.30;0.70;;;;;;;7.60;100.00;95424.91;5066037;28;20049;-66
2022/09/28 02:01:05;;;;;;;2.70;0.90;;;;;;;7.68;100.00;95419.72;5065821;28;20044;-66
2022/09/28 02:03:38;;;;;;;2.08;0.60;;;;;;;7.76;100.00;95412.94;5065991;28;20124;-66
2022/09/28 02:06:15;;;;;;;1.88;0.70;;;;;;;7.75;100.00;95405.13;5065398;28;20070;-66
2022/09/28 02:08:56;;;;;;;3.95;0.90;;;;;;;7.81;100.00;95404.81;5067500;28;20040;-66
2022/09/28 02:11:36;;;;;;;2.83;0.90;;;;;;;7.77;100.00;95401.06;5066929;28;20433;-66
2022/09/28 02:14:07;;;;;;;3.20;0.98;;;;;;;7.80;100.00;95403.22;5087697;28;20441;-66
2022/09/28 02:16:43;;;;;;;3.60;0.80;;;;;;;7.80;100.00;95397.00;5067152;28;20040;-66
2022/09/28 02:19:22;;;;;;;2.72;1.00;;;;;;;7.85;100.00;95391.56;5065368;28;20041;-66
2022/09/28 02:21:58;;;;;;;1.58;0.63;;;;;;;7.93;100.00;95395.56;5065728;28;20131;-67
2022/09/28 02:24:39;;;;;;;2.53;0.80;;;;;;;7.90;100.00;95390.72;5066965;28;20577;-66
2022/09/28 02:27:30;;;;;;;1.95;0.73;;;;;;;7.94;100.00;95389.88;5054437;28;20062;-66
2022/09/28 02:29:57;;;;;;;0.93;0.50;;;;;;;7.97;100.00;95390.41;5057311;28;20134;-66
2022/09/28 02:32:27;;;;;;;8.13;1.00;;;;;;;7.97;100.00;95390.41;5064168;28;20044;-66
2022/09/28 02:34:54;;;;;;;1.48;0.82;;;;;;;7.97;100.00;95391.22;5064935;28;20108;-66
2022/09/28 02:37:21;;;;;;;2.95;0.88;;;;;;;7.94;100.00;95381.81;5064559;28;20052;-66
2022/09/28 02:39:47;;;;;;;6.30;1.00;;;;;;;7.90;100.00;95386.16;5065528;28;20067;-66
2022/09/28 02:42:27;;;;;;;2.78;0.82;;;;;;;7.87;100.00;95381.31;5073655;28;20040;-66
2022/09/28 02:45:31;;;;;;;5.40;1.13;;;;;;;7.82;100.00;95373.28;5081587;28;20048;-66
2022/09/28 02:48:00;;;;;;;2.10;0.90;;;;;;;7.81;100.00;95375.19;5066314;28;20048;-66
2022/09/28 02:50:56;;;;;;;2.25;0.90;;;;;;;7.80;100.00;95378.97;5064172;28;20044;-66
2022/09/28 02:53:44;;;;;;;6.10;1.05;;;;;;;7.80;100.00;95376.28;5071357;28;20135;-66
2022/09/28 02:56:35;;;;;;;3.78;1.17;;;;;;;7.83;100.00;95369.50;5062862;28;20048;-66
2022/09/28 02:59:11;;;;;;;2.70;1.00;;;;;;;7.84;100.00;95368.41;5064834;28;20511;-66
2022/09/28 03:02:00;;;;;;;2.50;0.70;;;;;;;7.84;100.00;95368.41;5064028;28;20075;-66
2022/09/28 03:04:31;;;;;;;3.80;0.82;;;;;;;7.89;100.00;95359.50;5064249;28;20040;-66
2022/09/28 03:07:05;;;;;;;3.47;0.80;;;;;;;7.93;100.00;95353.22;5064076;28;20427;-66
2022/09/28 03:09:54;;;;;;;3.80;1.00;;;;;;;7.95;100.00;95350.25;5064797;28;20036;-66
2022/09/28 03:12:22;;;;;;;3.90;1.00;;;;;;;7.97;100.00;95358.88;5073227;28;20048;-66
2022/09/28 03:15:25;;;;;;;0.88;0.60;;;;;;;8.03;100.00;95357.72;5072462;28;20044;-66
2022/09/28 03:17:52;;;;;;;3.60;0.90;;;;;;;8.14;100.00;95353.03;5064967;28;20055;-66
2022/09/28 03:20:19;;;;;;;2.08;0.68;;;;;;;8.18;100.00;95372.13;5065002;28;20040;-66
2022/09/28 03:22:46;;;;;;;3.13;0.75;;;;;;;8.25;100.00;95404.16;5065607;28;20071;-66
2022/09/28 03:25:32;;;;;;;1.38;0.50;;;;;;;8.29;100.00;95397.09;5065156;28;20041;-66
2022/09/28 03:27:59;;;;;;;4.22;0.65;;;;;;;8.13;100.00;95399.94;5065981;28;20111;-66
2022/09/28 03:30:26;;;;;;;3.17;0.68;;;;;;;8.05;100.00;95401.38;5064513;28;20069;-66
2022/09/28 03:32:59;;;;;;;4.55;0.60;;;;;;;7.79;100.00;95403.50;5065534;28;20069;-65
2022/09/28 03:35:28;;;;;;;2.05;0.60;;;;;;;7.76;100.00;95404.84;5063574;28;20041;-65
2022/09/28 03:37:55;;;;;;;4.03;0.60;;;;;;;7.76;100.00;95407.56;5065679;28;20067;-66
2022/09/28 03:40:24;;;;;;;1.80;0.80;;;;;;;7.70;100.00;95407.88;5064142;28;20068;-66
2022/09/28 03:42:51;;;;;;;4.07;0.70;;;;;;;7.64;100.00;95412.50;5067518;28;20596;-66
2022/09/28 03:45:18;;;;;;;1.08;0.40;;;;;;;7.62;100.00;95412.78;5063859;28;20106;-66
2022/09/28 03:47:47;;;;;;;2.88;0.40;;;;;;;7.59;100.00;95407.16;5064528;28;20048;-65
2022/09/28 03:50:14;;;;;;;1.70;0.43;;;;;;;7.60;100.00;95422.22;5063826;28;20093;-66
2022/09/28 03:52:41;;;;;;;2.10;0.50;;;;;;;7.60;100.00;95414.97;5070599;28;20115;-65
2022/09/28 03:55:08;;;;;;;2.85;0.45;;;;;;;7.62;100.00;95404.69;5069511;28;20094;-65
2022/09/28 03:57:36;;;;;;;2.25;0.82;;;;;;;7.59;100.00;95402.56;5063968;28;20627;-66
2022/09/28 04:00:04;;;;;;;1.10;0.50;;;;;;;7.53;100.00;95393.72;5064131;28;20052;-65
2022/09/28 04:02:39;;;;;;;3.10;0.82;;;;;;;7.46;100.00;95400.50;5065107;28;20052;-66
2022/09/28 04:05:06;;;;;;;1.88;0.50;;;;;;;7.45;100.00;95398.91;5063751;28;20047;-66
2022/09/28 04:07:32;;;;;;;0.73;0.30;;;;;;;7.43;100.00;95393.78;5064317;28;20102;-66
2022/09/28 04:09:59;;;;;;;3.28;0.70;;;;;;;7.52;100.00;95399.41;5064174;28;20139;-66
2022/09/28 04:12:25;;;;;;;1.88;0.52;;;;;;;7.44;100.00;95400.00;5064170;28;20048;-66
2022/09/28 04:14:52;;;;;;;2.08;0.45;;;;;;;7.48;100.00;95392.97;5062774;28;20114;-66
2022/09/28 04:17:18;;;;;;;2.15;0.70;;;;;;;7.38;100.00;95389.25;5065811;28;20040;-66
2022/09/28 04:19:46;;;;;;;0.55;0.35;;;;;;;7.36;100.00;95382.53;5064238;28;20123;-65
2022/09/28 04:22:36;;;;;;;0.70;0.43;;;;;;;7.30;100.00;95376.41;5062461;28;20040;-66
2022/09/28 04:25:03;;;;;;;0.90;0.50;;;;;;;7.29;100.00;95389.06;5063496;28;20329;-66
2022/09/28 04:30:16;;;;;;;2.85;0.60;;;;;;;7.23;100.00;95398.22;5044499;28;20099;-66
2022/09/28 04:32:46;;;;;;;3.97;0.68;;;;;;;7.27;100.00;95395.81;5046197;28;20103;-65
2022/09/28 04:35:13;;;;;;;1.52;0.60;;;;;;;7.24;100.00;95399.03;5064061;28;20036;-65
2022/09/28 04:37:40;;;;;;;1.13;0.40;;;;;;;7.21;100.00;95403.09;5064138;28;20048;-66
2022/09/28 04:40:07;;;;;;;3.33;0.57;;;;;;;7.26;100.00;95402.28;5063872;28;20045;-66
2022/09/28 04:42:35;;;;;;;1.90;0.47;;;;;;;7.24;100.00;95404.44;5075979;28;20487;-66
2022/09/28 04:45:03;;;;;;;1.67;0.47;;;;;;;7.23;100.00;95402.81;5064688;28;20128;-66
2022/09/28 04:47:31;;;;;;;2.75;0.90;;;;;;;7.19;100.00;95397.19;5063613;28;20581;-66
2022/09/28 04:50:09;;;;;;;4.15;0.90;;;;;;;7.27;100.00;95401.19;5067695;28;20041;-67
2022/09/28 04:52:56;;;;;;;0.90;0.40;;;;;;;7.24;100.00;95388.28;5073341;28;20040;-66
2022/09/28 04:55:22;;;;;;;1.80;0.60;;;;;;;7.22;100.00;95391.25;5066838;28;20054;-66
2022/09/28 04:57:49;;;;;;;3.22;1.10;;;;;;;7.23;100.00;95400.13;5066830;28;20052;-66
2022/09/28 05:00:16;;;;;;;4.68;2.05;;;;;;;7.25;100.00;95398.78;5066982;28;20610;-66
2022/09/28 05:02:54;;;;;;;1.83;0.63;;;;;;;7.21;100.00;95402.28;5066961;28;20047;-66
2022/09/28 05:05:56;;;;;;;2.33;0.70;;;;;;;7.17;100.00;95404.75;5043673;28;20079;-66
2022/09/28 05:08:40;;;;;;;3.15;0.75;;;;;;;7.23;100.00;95409.00;5062420;28;20053;-66
2022/09/28 05:11:10;;;;;;;1.92;0.70;;;;;;;7.28;100.00;95414.38;5063522;28;20076;-66
2022/09/28 05:13:43;;;;;;;3.42;0.95;;;;;;;7.23;100.00;95414.38;5086949;28;20133;-63
2022/09/28 05:16:14;;;;;;;1.67;0.50;;;;;;;7.21;100.00;95410.34;5067656;28;20068;-63
2022/09/28 05:19:05;;;;;;;2.70;0.88;;;;;;;7.16;100.00;95412.00;5048011;28;20129;-63
2022/09/28 05:21:32;;;;;;;3.17;0.80;;;;;;;7.15;100.00;95405.00;5065869;28;20044;-64
2022/09/28 05:23:58;;;;;;;3.17;0.93;;;;;;;7.21;100.00;95400.41;5066552;28;20037;-63
2022/09/28 05:26:28;;;;;;;2.75;0.73;;;;;;;7.18;100.00;95400.16;5066830;28;20466;-63
2022/09/28 05:28:55;;;;;;;3.33;0.95;;;;;;;7.23;100.00;95392.84;5067041;28;20048;-64
2022/09/28 05:32:00;;;;;;;2.53;0.82;;;;;;;7.20;100.00;95396.13;5067227;28;20058;-65
2022/09/28 05:34:45;;;;;;;4.28;1.10;;;;;;;7.21;100.00;95402.28;5068171;28;20517;-64
2022/09/28 05:37:18;;;;;;;3.05;0.80;;;;;;;7.24;100.00;95420.56;5066674;28;20538;-63
2022/09/28 05:39:45;;;;;;;4.15;1.27;;;;;;;7.21;100.00;95427.31;5063564;28;20106;-63
2022/09/28 05:42:11;;;;;;;4.70;1.15;;;;;;;7.19;100.00;95426.78;5064519;28;20501;-63
2022/09/28 05:44:38;;;;;;;7.70;1.73;;;;;;;7.52;100.00;95435.19;5060637;28;20040;-63
2022/09/28 05:47:04;;;;;;;4.38;1.20;;;;;;;7.56;100.00;95435.47;5064667;28;20048;-63
2022/09/28 05:49:31;;;;;;;3.50;1.17;;;;;;;7.66;100.00;95435.38;5061278;28;20061;-63
2022/09/28 05:51:59;;;;;;;8.40;2.13;;;;;;;7.66;100.00;95435.38;5062833;28;20684;-63
2022/09/28 05:54:26;;;;;;;4.35;1.20;;;;;;;7.70;100.00;95438.31;5063842;28;20044;-64
2022/09/28 05:56:52;;;;;;;5.45;0.90;;;;;;;7.76;100.00;95429.09;5064203;28;20071;-64
2022/09/28 05:59:19;;;;;;;1.48;0.80;;;;;;;7.76;100.00;95434.50;5065077;28;20474;-63
2022/09/28 06:01:45;;;;;;;12.20;7.25;;;;;;;7.83;100.00;95433.34;5062798;28;20078;-64
2022/09/28 06:04:14;;;;;;;11.15;5.28;;;;;;;7.84;100.00;95426.88;5076845;28;20079;-64
2022/09/28 06:06:42;;;;;;;5.60;1.55;;;;;;;7.87;100.00;95426.31;5068638;28;20041;-64
2022/09/28 06:09:09;;;;;;;3.28;1.17;;;;;;;7.97;100.00;95426.25;5064897;28;20814;-64
2022/09/28 06:11:54;;;;;;;2.20;1.05;;;;;;;8.05;100.00;95427.50;5067607;28;20075;-64
2022/09/28 06:14:41;;;;;;;5.38;1.25;;;;;;;7.98;100.00;95429.72;5064494;28;20125;-64
2022/09/28 06:17:07;;;;;;;3.17;1.10;;;;;;;7.94;100.00;95435.69;5064204;28;20083;-64
2022/09/28 06:19:34;;;;;;;7.05;2.30;;;;;;;7.97;100.00;95438.91;5064033;28;20059;-64
2022/09/28 06:22:22;;;;;;;5.45;1.50;;;;;;;8.01;100.00;95445.34;5062151;28;20071;-64
2022/09/28 06:24:59;;;;;;;4.93;1.40;;;;;;;7.96;100.00;95442.69;5063655;28;20105;-64
2022/09/28 06:27:26;;;;;;;3.40;1.30;;;;;;;7.88;100.00;95447.59;5063109;28;20420;-64
2022/09/28 06:29:52;;;;;;;6.38;1.77;;;;;;;7.96;100.00;95450.78;5062544;28;20048;-64
2022/09/28 06:32:19;;;;;;;7.90;3.90;;;;;;;8.01;100.00;95456.94;5063848;28;20123;-60
2022/09/28 06:34:47;;;;;;;5.07;1.70;;;;;;;7.99;100.00;95459.09;5061942;28;20147;-64
2022/09/28 06:37:21;;;;;;;12.55;3.80;;;;;;;8.01;100.00;95462.31;5060281;28;20040;-63
2022/09/28 06:39:49;;;;;;;11.13;3.58;;;;;;;8.00;100.00;95468.78;5062632;28;20428;-64
2022/09/28 06:42:18;;;;;;;36.63;18.42;;;;;;;8.02;100.00;95468.50;5070797;28;20058;-64
2022/09/28 06:45:18;;;;;;;23.20;11.73;;;;;;;7.94;100.00;95475.31;5021306;28;20102;-64
2022/09/28 06:48:05;;;;;;;16.15;6.43;;;;;;;7.97;100.00;95474.75;5064089;28;20419;-64
2022/09/28 06:50:39;;;;;;;21.55;8.55;;;;;;;7.98;100.00;95486.31;5061704;28;20656;-64
2022/09/28 06:53:29;;;;;;;;;;;;;;;7.95;100.00;95490.38;5053279;28;20742;-66
2022/09/28 06:56:01;;;;;;;12.60;5.57;;;;;;;7.97;100.00;95493.63;5062931;28;19920;-64
2022/09/28 06:58:28;;;;;;;31.63;16.23;;;;;;;7.95;100.00;95493.09;5062002;28;20098;-65
2022/09/28 07:00:58;;;;;;;5.68;2.05;;;;;;;8.00;100.00;95495.72;5049076;28;20143;-65
2022/09/28 07:03:26;;;;;;;10.25;7.47;;;;;;;8.02;100.00;95490.06;5062809;28;20129;-64
2022/09/28 07:05:56;;;;;;;5.50;1.73;;;;;;;8.04;100.00;95502.16;5071046;28;20075;-64
2022/09/28 07:08:51;;;;;;;5.82;1.90;;;;;;;7.97;100.00;95506.28;5010708;28;20053;-64
2022/09/28 07:11:53;;;;;;;4.47;1.75;;;;;;;8.06;100.00;95504.59;5064534;28;20131;-64
2022/09/28 07:14:25;;;;;;;3.95;1.38;;;;;;;8.07;100.00;95506.19;5062308;28;20040;-65
2022/09/28 07:17:11;;;;;;;3.85;1.45;;;;;;;8.12;100.00;95508.06;5064544;28;20166;-64
2022/09/28 07:19:41;;;;;;;5.65;3.17;;;;;;;8.20;100.00;95500.19;5064288;28;20048;-65
2022/09/28 07:22:13;;;;;;;5.90;2.53;;;;;;;8.19;100.00;95506.63;5063953;28;20049;-65
2022/09/28 07:24:45;;;;;;;14.00;9.35;;;;;;;8.16;100.00;95511.78;5064480;28;20721;-64
2022/09/28 07:27:30;;;;;;;7.80;2.90;;;;;;;8.29;100.00;95521.13;5065770;28;20067;-65
2022/09/28 07:30:36;;;;;;;4.38;1.98;;;;;;;8.26;100.00;95521.69;5042571;28;20736;-64
2022/09/28 07:33:13;;;;;;;5.15;1.40;;;;;;;8.27;100.00;95528.69;5043085;28;20128;-65
2022/09/28 07:35:59;;;;;;;4.55;1.30;;;;;;;8.20;100.00;95537.91;5050799;28;20053;-64
2022/09/28 07:38:28;;;;;;;3.30;1.90;;;;;;;8.25;100.00;95541.66;5075896;28;20522;-64
2022/09/28 07:41:10;;;;;;;4.60;2.00;;;;;;;8.23;100.00;95558.13;5069617;28;20102;-64
2022/09/28 07:43:48;;;;;;;5.07;1.75;;;;;;;8.27;100.00;95559.16;5100366;28;20087;-64
2022/09/28 07:46:16;;;;;;;3.53;1.55;;;;;;;8.23;100.00;95557.31;5060245;28;20048;-64
2022/09/28 07:48:53;;;;;;;5.57;1.60;;;;;;;8.32;100.00;95563.69;5061680;28;20048;-64
2022/09/28 07:51:43;;;;;;;2.97;1.38;;;;;;;8.31;100.00;95560.22;5044783;28;20055;-64
2022/09/28 07:54:38;;;;;;;3.08;1.58;;;;;;;8.42;100.00;95566.31;5052804;28;20055;-64
2022/09/28 07:57:39;;;;;;;3.45;1.40;;;;;;;8.35;100.00;95562.31;5060574;28;20067;-64
2022/09/28 08:00:20;;;;;;;4.63;1.75;;;;;;;8.27;100.00;95569.13;5060510;28;20141;-64
2022/09/28 08:02:47;;;;;;;5.60;1.52;;;;;;;8.22;100.00;95579.97;5060957;28;20454;-64
2022/09/28 08:05:19;;;;;;;5.25;1.90;;;;;;;8.19;100.00;95582.13;5062369;28;20040;-64
2022/09/28 08:07:46;;;;;;;4.35;1.65;;;;;;;8.36;100.00;95585.53;5060758;28;20040;-64
2022/09/28 08:10:13;;;;;;;4.03;1.83;;;;;;;8.46;100.00;95585.44;5066555;28;20113;-64
2022/09/28 08:13:19;;;;;;;5.93;1.52;;;;;;;8.49;100.00;95579.47;5051756;28;20059;-64
2022/09/28 08:16:11;;;;;;;5.88;1.52;;;;;;;8.51;100.00;95585.38;5061411;28;20124;-64
2022/09/28 08:18:43;;;;;;;5.50;1.75;;;;;;;8.45;100.00;95591.91;5062168;28;20063;-64
2022/09/28 08:23:55;;;;;;;4.38;1.60;;;;;;;8.39;100.00;95587.63;5065581;28;20204;-64
2022/09/28 08:26:21;;;;;;;3.67;1.73;;;;;;;8.45;100.00;95597.31;5065286;28;20119;-64
2022/09/28 08:28:48;;;;;;;4.40;1.70;;;;;;;8.46;100.00;95602.44;5065774;28;20135;-64
2022/09/28 08:31:34;;;;;;;3.55;1.90;;;;;;;8.39;100.00;95596.53;5066756;28;20063;-64
2022/09/28 08:34:12;;;;;;;8.27;1.98;;;;;;;8.37;100.00;95597.91;5067989;28;20044;-64
2022/09/28 08:37:03;;;;;;;5.55;1.95;;;;;;;8.51;100.00;95609.66;5073021;28;20466;-64
2022/09/28 08:39:48;;;;;;;3.15;1.50;;;;;;;8.63;100.00;95611.22;5070821;28;20106;-64
2022/09/28 08:42:40;;;;;;;4.88;2.22;;;;;;;8.61;100.00;95608.81;5075880;28;20408;-64
2022/09/28 08:45:13;;;;;;;4.80;2.20;;;;;;;8.55;100.00;95604.56;5080687;28;20047;-64
2022/09/28 08:51:20;;;;;;;4.22;2.08;;;;;;;8.98;100.00;95611.97;5059100;28;20048;-64
2022/09/28 08:54:24;;;;;;;4.75;1.95;;;;;;;9.08;99.03;95611.09;5068509;28;20048;-64
2022/09/28 08:57:02;;;;;;;8.93;2.70;;;;;;;9.21;98.66;95610.41;5064953;28;20083;-64
2022/09/28 08:59:45;;;;;;;3.38;1.42;;;;;;;9.46;98.43;95616.63;5065629;28;20044;-64
2022/09/28 09:02:24;;;;;;;6.15;1.70;;;;;;;9.68;95.53;95601.75;5054062;28;20045;-64
2022/09/28 09:04:53;;;;;;;4.80;1.90;;;;;;;9.53;96.45;95616.25;5065110;28;20044;-64
2022/09/28 09:07:40;;;;;;;5.25;1.70;;;;;;;9.37;97.45;95619.13;5076825;28;20119;-64
2022/09/28 09:10:27;;;;;;;7.88;2.10;;;;;;;9.48;99.21;95622.50;5052517;28;20177;-66
2022/09/28 09:13:15;;;;;;;6.13;1.98;;;;;;;9.44;98.39;95623.41;5075046;28;20058;-64
2022/09/28 09:16:30;;;;;;;5.28;2.30;;;;;;;9.47;97.35;95631.72;5064700;28;20145;-65
2022/09/28 09:19:35;;;;;;;6.22;2.55;;;;;;;9.30;99.00;95625.97;5062100;28;20072;-65
2022/09/28 09:22:54;;;;;;;9.10;2.58;;;;;;;9.19;96.93;95634.19;5056910;28;20142;-66
2022/09/28 09:25:25;;;;;;;3.92;2.35;;;;;;;9.42;97.86;95637.19;5057056;28;20127;-66
2022/09/28 09:28:34;;;;;;;7.57;3.55;;;;;;;9.34;96.02;95641.34;5060040;28;20053;-66
2022/09/28 09:31:19;;;;;;;7.50;3.45;;;;;;;9.42;96.60;95645.28;5067818;28;20528;-65
2022/09/28 09:33:58;;;;;;;8.07;4.03;;;;;;;9.21;97.82;95656.31;5068110;28;20049;-65
2022/09/28 09:36:56;;;;;;;8.77;5.88;;;;;;;9.27;97.11;95659.75;5065815;28;20087;-65
2022/09/28 09:40:13;;;;;;;7.32;4.38;;;;;;;9.38;97.20;95652.34;5066288;28;20060;-65
2022/09/28 09:43:36;;;;;;;6.57;2.25;;;;;;;9.42;95.81;95663.38;5080119;28;20063;-65
2022/09/28 09:46:36;;;;;;;8.20;3.88;;;;;;;9.33;96.58;95658.59;5056783;28;20605;-65
2022/09/28 09:49:33;;;;;;;6.30;3.28;;;;;;;9.30;94.88;95667.31;5064625;28;20048;-65
2022/09/28 09:52:08;;;;;;;7.00;2.40;;;;;;;9.21;93.59;95672.50;5067429;28;20053;-65
2022/09/28 09:54:41;;;;;;;9.68;5.82;;;;;;;9.17;94.56;95666.06;5056777;28;20040;-65
2022/09/28 09:57:24;;;;;;;9.40;3.47;;;;;;;9.26;95.99;95671.66;5065424;28;20748;-65
2022/09/28 10:00:11;;;;;;;3.83;2.00;;;;;;;9.42;92.91;95669.59;5085146;28;20070;-65
2022/09/28 10:02:52;;;;;;;13.45;6.32;;;;;;;9.44;95.51;95669.31;5081435;28;20056;-65
2022/09/28 10:05:33;;;;;;;7.10;3.58;;;;;;;9.50;92.89;95665.47;5072441;28;20040;-66
2022/09/28 10:08:13;;;;;;;5.07;1.80;;;;;;;9.47;88.41;95669.53;5063589;28;20048;-65
2022/09/28 10:11:06;;;;;;;6.22;2.20;;;;;;;9.66;90.64;95670.69;5062996;28;20045;-65
2022/09/28 10:13:35;;;;;;;9.57;4.40;;;;;;;9.72;87.55;95669.53;5067715;28;20526;-66
2022/09/28 10:16:10;;;;;;;7.13;3.80;;;;;;;9.80;86.74;95673.53;5065157;28;20048;-66
2022/09/28 10:18:45;;;;;;;9.15;5.13;;;;;;;9.69;87.09;95667.44;5063533;28;20044;-65
2022/09/28 10:21:36;;;;;;;5.78;2.13;;;;;;;9.74;85.37;95662.75;5065011;28;20055;-66
2022/09/28 10:24:40;;;;;;;5.40;2.15;;;;;;;9.75;84.31;95669.78;5083413;28;20132;-65
2022/09/28 10:27:13;;;;;;;5.60;1.98;;;;;;;9.75;88.14;95669.78;5068860;28;20039;-66
2022/09/28 10:29:48;;;;;;;7.32;2.03;;;;;;;9.69;84.67;95662.81;5088645;28;20052;-66
2022/09/28 10:32:21;;;;;;;7.00;3.28;;;;;;;9.58;83.14;95664.03;5063490;28;20044;-66
2022/09/28 10:34:53;;;;;;;4.40;1.90;;;;;;;9.64;84.46;95668.28;5063206;28;20079;-66
2022/09/28 10:37:25;;;;;;;8.57;3.05;;;;;;;9.86;85.62;95673.16;5063193;28;20105;-65
2022/09/28 10:40:29;;;;;;;5.20;2.17;;;;;;;10.00;85.96;95669.75;5063169;28;20140;-66
2022/09/28 10:43:07;;;;;;;4.20;1.20;;;;;;;9.80;82.56;95678.94;5074533;28;20052;-66
2022/09/28 10:45:36;;;;;;;4.53;1.90;;;;;;;9.62;85.98;95675.88;5062132;28;20051;-66
2022/09/28 10:48:06;;;;;;;3.28;1.75;;;;;;;9.78;86.40;95676.50;5064572;28;20048;-66
2022/09/28 10:50:33;;;;;;;5.72;1.90;;;;;;;9.85;87.23;95681.56;5064624;28;20511;-66
2022/09/28 10:53:19;;;;;;;6.07;2.95;;;;;;;9.82;86.98;95679.44;5099143;27;20048;-66
2022/09/28 10:56:02;;;;;;;5.75;2.22;;;;;;;9.81;87.43;95680.53;5056876;28;20731;-66
2022/09/28 10:58:39;;;;;;;8.02;2.55;;;;;;;9.78;86.50;95671.09;5062691;28;20779;-65
2022/09/28 11:01:32;;;;;;;4.53;1.77;;;;;;;9.96;85.75;95674.13;5063926;28;20056;-66
2022/09/28 11:04:02;;;;;;;5.75;1.92;;;;;;;10.15;85.17;95672.22;5064591;28;20053;-66
2022/09/28 11:06:34;;;;;;;3.45;1.73;;;;;;;10.07;85.59;95674.78;5079922;28;20043;-65
2022/09/28 11:09:04;;;;;;;3.50;1.70;;;;;;;10.14;85.32;95673.34;5062537;28;20051;-66
2022/09/28 11:11:39;;;;;;;5.97;2.80;;;;;;;10.34;87.74;95676.06;5052745;28;20102;-66
2022/09/28 11:14:33;;;;;;;4.65;1.60;;;;;;;10.66;81.82;95664.50;5068363;28;20048;-67
2022/09/28 11:17:29;;;;;;;3.95;1.55;;;;;;;10.58;83.46;95665.16;5062465;28;20064;-65
2022/09/28 11:19:58;;;;;;;5.00;1.60;;;;;;;10.70;80.30;95658.50;5062826;28;20497;-66
2022/09/28 11:22:40;;;;;;;5.05;1.60;;;;;;;10.72;79.88;95654.41;5061634;28;20147;-66
2022/09/28 11:25:17;;;;;;;9.43;3.78;;;;;;;10.85;80.63;95662.88;5062768;28;20040;-65
2022/09/28 11:28:04;;;;;;;4.70;1.20;;;;;;;10.96;79.07;95668.94;5096132;28;20045;-66
2022/09/28 11:30:48;;;;;;;6.00;1.88;;;;;;;11.25;79.79;95657.88;5062338;28;20515;-66
2022/09/28 11:33:29;;;;;;;5.38;1.90;;;;;;;11.52;80.31;95667.13;5062406;28;20048;-66
2022/09/28 11:36:17;;;;;;;8.95;5.80;;;;;;;11.50;76.43;95663.13;5064305;28;20059;-66
2022/09/28 11:38:58;;;;;;;3.78;1.60;;;;;;;11.25;74.41;95651.63;5061565;28;20052;-65
2022/09/28 11:41:57;;;;;;;4.70;1.40;;;;;;;11.07;73.23;95656.81;5064874;28;20060;-66
2022/09/28 11:44:43;;;;;;;4.50;1.10;;;;;;;11.13;73.96;95654.84;5095495;28;20033;-66
2022/09/28 11:47:48;;;;;;;5.03;1.50;;;;;;;11.03;75.95;95653.88;5049570;28;20049;-67
2022/09/28 11:50:34;;;;;;;4.38;2.05;;;;;;;10.73;76.07;95650.59;5037267;28;20097;-65
2022/09/28 11:53:21;;;;;;;4.45;1.92;;;;;;;10.74;77.13;95641.41;5074391;28;20062;-66
2022/09/28 11:55:53;;;;;;;5.65;1.52;;;;;;;10.86;74.84;95643.63;5049194;28;20052;-66
2022/09/28 11:58:26;;;;;;;6.35;1.42;;;;;;;10.90;75.63;95633.00;5065932;28;20062;-65
2022/09/28 12:00:59;;;;;;;3.03;1.30;;;;;;;10.91;75.40;95645.47;5066202;28;20087;-65
2022/09/28 12:03:43;;;;;;;3.63;1.42;;;;;;;11.01;73.56;95637.16;5069586;28;20052;-66
2022/09/28 12:06:17;;;;;;;3.28;1.20;;;;;;;11.14;71.33;95646.41;5074489;28;20067;-65
2022/09/28 12:08:57;;;;;;;5.70;1.63;;;;;;;11.10;70.48;95631.06;5065884;28;20068;-66
2022/09/28 12:11:47;;;;;;;2.38;0.80;;;;;;;11.12;69.10;95636.97;5082966;28;20063;-66
2022/09/28 12:14:28;;;;;;;4.28;0.95;;;;;;;11.18;69.06;95635.78;5076323;28;20058;-65
2022/09/28 12:17:13;;;;;;;5.38;1.05;;;;;;;11.39;69.15;95643.53;5060540;28;20054;-65
2022/09/28 12:19:55;;;;;;;2.00;1.02;;;;;;;11.59;68.80;95642.34;5074279;28;20043;-65
2022/09/28 12:22:30;;;;;;;4.55;1.05;;;;;;;11.34;68.73;95640.91;5073441;28;20051;-64
2022/09/28 12:24:59;;;;;;;2.45;0.60;;;;;;;11.21;66.19;95639.78;5073305;28;20563;-64
2022/09/28 12:27:25;;;;;;;4.50;1.38;;;;;;;11.20;67.17;95647.09;5074208;28;20127;-67
2022/09/28 12:30:19;;;;;;;2.22;1.05;;;;;;;11.36;69.63;95634.09;5054277;28;20653;-66
2022/09/28 12:33:05;;;;;;;2.55;0.90;;;;;;;11.44;68.98;95646.97;5066650;28;20055;-65